sensor_id;sensor_type;location;lat;lon;timestamp;P1;durP1;ratioP1;P2;durP2;ratioP2
20381;SDS011;10350;51.280;12.400;2022-12-11T00:01:11;22.98;;;12.38;;
20381;SDS011;10350;51.280;12.400;2022-12-11T00:03:38;26.38;;;13.77;;
20381;SDS011;10350;51.280;12.400;2022-12-11T00:06:08;26.48;;;12.55;;
20381;SDS011;10350;51.280;12.400;2022-12-11T00:08:35;24.58;;;11.82;;
20381;SDS011;10350;51.280;12.400;2022-12-11T00:11:01;27.75;;;12.27;;
20381;SDS011;10350;51.280;12.400;2022-12-11T00:13:27;24.02;;;11.52;;
20381;SDS011;10350;51.280;12.400;2022-12-11T00:15:54;28.83;;;11.82;;
20381;SDS011;10350;51.280;12.400;2022-12-11T00:18:20;27.67;;;12.23;;
20381;SDS011;10350;51.280;12.400;2022-12-11T00:20:46;24.70;;;12.75;;
20381;SDS011;10350;51.280;12.400;2022-12-11T00:23:12;27.60;;;12.15;;
20381;SDS011;10350;51.280;12.400;2022-12-11T00:25:41;24.50;;;10.65;;
20381;SDS011;10350;51.280;12.400;2022-12-11T00:28:08;22.20;;;11.18;;
20381;SDS011;10350;51.280;12.400;2022-12-11T00:30:37;19.08;;;10.25;;
20381;SDS011;10350;51.280;12.400;2022-12-11T00:33:04;19.38;;;10.05;;
20381;SDS011;10350;51.280;12.400;2022-12-11T00:35:30;20.30;;;10.35;;
20381;SDS011;10350;51.280;12.400;2022-12-11T00:37:56;20.50;;;9.18;;
20381;SDS011;10350;51.280;12.400;2022-12-11T00:40:22;17.67;;;9.48;;
20381;SDS011;10350;51.280;12.400;2022-12-11T00:42:48;18.40;;;8.90;;
20381;SDS011;10350;51.280;12.400;2022-12-11T00:45:14;17.55;;;8.95;;
20381;SDS011;10350;51.280;12.400;2022-12-11T00:47:40;15.40;;;8.15;;
20381;SDS011;10350;51.280;12.400;2022-12-11T00:50:06;18.92;;;9.57;;
20381;SDS011;10350;51.280;12.400;2022-12-11T00:52:32;21.10;;;9.43;;
20381;SDS011;10350;51.280;12.400;2022-12-11T00:54:58;15.07;;;7.88;;
20381;SDS011;10350;51.280;12.400;2022-12-11T00:57:24;17.40;;;8.45;;
20381;SDS011;10350;51.280;12.400;2022-12-11T00:59:50;18.13;;;9.15;;
20381;SDS011;10350;51.280;12.400;2022-12-11T01:02:16;16.20;;;8.70;;
20381;SDS011;10350;51.280;12.400;2022-12-11T01:04:42;15.50;;;8.77;;
20381;SDS011;10350;51.280;12.400;2022-12-11T01:07:08;18.75;;;9.27;;
20381;SDS011;10350;51.280;12.400;2022-12-11T01:09:37;17.67;;;9.35;;
20381;SDS011;10350;51.280;12.400;2022-12-11T01:12:42;16.35;;;8.65;;
20381;SDS011;10350;51.280;12.400;2022-12-11T01:15:08;16.77;;;8.60;;
20381;SDS011;10350;51.280;12.400;2022-12-11T01:17:35;12.80;;;6.55;;
20381;SDS011;10350;51.280;12.400;2022-12-11T01:20:01;16.88;;;7.82;;
20381;SDS011;10350;51.280;12.400;2022-12-11T01:22:28;16.55;;;8.43;;
20381;SDS011;10350;51.280;12.400;2022-12-11T01:24:54;17.20;;;8.65;;
20381;SDS011;10350;51.280;12.400;2022-12-11T01:27:20;16.17;;;8.40;;
20381;SDS011;10350;51.280;12.400;2022-12-11T01:29:46;13.38;;;8.23;;
20381;SDS011;10350;51.280;12.400;2022-12-11T01:32:13;15.20;;;8.05;;
20381;SDS011;10350;51.280;12.400;2022-12-11T01:34:39;14.85;;;7.55;;
20381;SDS011;10350;51.280;12.400;2022-12-11T01:37:05;15.20;;;8.38;;
20381;SDS011;10350;51.280;12.400;2022-12-11T01:39:31;12.98;;;7.93;;
20381;SDS011;10350;51.280;12.400;2022-12-11T01:41:59;14.73;;;7.60;;
20381;SDS011;10350;51.280;12.400;2022-12-11T01:46:51;14.82;;;8.68;;
20381;SDS011;10350;51.280;12.400;2022-12-11T01:49:17;15.40;;;8.65;;
20381;SDS011;10350;51.280;12.400;2022-12-11T01:51:48;13.07;;;7.17;;
20381;SDS011;10350;51.280;12.400;2022-12-11T01:54:16;17.48;;;8.57;;
20381;SDS011;10350;51.280;12.400;2022-12-11T01:56:44;16.42;;;8.98;;
20381;SDS011;10350;51.280;12.400;2022-12-11T01:59:11;17.27;;;8.90;;
20381;SDS011;10350;51.280;12.400;2022-12-11T02:01:39;18.48;;;8.65;;
20381;SDS011;10350;51.280;12.400;2022-12-11T02:04:06;14.70;;;8.20;;
20381;SDS011;10350;51.280;12.400;2022-12-11T02:06:37;17.27;;;8.35;;
20381;SDS011;10350;51.280;12.400;2022-12-11T02:09:04;18.55;;;8.88;;
20381;SDS011;10350;51.280;12.400;2022-12-11T02:11:37;19.17;;;9.27;;
20381;SDS011;10350;51.280;12.400;2022-12-11T02:14:06;16.00;;;8.35;;
20381;SDS011;10350;51.280;12.400;2022-12-11T02:16:44;15.48;;;8.63;;
20381;SDS011;10350;51.280;12.400;2022-12-11T02:19:16;14.85;;;8.85;;
20381;SDS011;10350;51.280;12.400;2022-12-11T02:21:45;16.88;;;8.35;;
20381;SDS011;10350;51.280;12.400;2022-12-11T02:24:18;18.73;;;8.65;;
20381;SDS011;10350;51.280;12.400;2022-12-11T02:29:25;15.13;;;8.43;;
20381;SDS011;10350;51.280;12.400;2022-12-11T02:31:57;14.82;;;8.13;;
20381;SDS011;10350;51.280;12.400;2022-12-11T02:34:27;14.90;;;7.95;;
20381;SDS011;10350;51.280;12.400;2022-12-11T02:36:56;16.85;;;8.25;;
20381;SDS011;10350;51.280;12.400;2022-12-11T02:41:49;18.13;;;8.23;;
20381;SDS011;10350;51.280;12.400;2022-12-11T02:44:16;16.98;;;8.50;;
20381;SDS011;10350;51.280;12.400;2022-12-11T02:46:44;12.52;;;7.68;;
20381;SDS011;10350;51.280;12.400;2022-12-11T02:49:10;15.07;;;7.88;;
20381;SDS011;10350;51.280;12.400;2022-12-11T02:51:38;17.92;;;8.55;;
20381;SDS011;10350;51.280;12.400;2022-12-11T02:54:05;18.15;;;9.63;;
20381;SDS011;10350;51.280;12.400;2022-12-11T02:56:33;17.52;;;8.90;;
20381;SDS011;10350;51.280;12.400;2022-12-11T02:59:09;16.48;;;8.93;;
20381;SDS011;10350;51.280;12.400;2022-12-11T03:01:36;15.30;;;8.38;;
20381;SDS011;10350;51.280;12.400;2022-12-11T03:04:02;17.73;;;8.30;;
20381;SDS011;10350;51.280;12.400;2022-12-11T03:06:31;20.20;;;8.90;;
20381;SDS011;10350;51.280;12.400;2022-12-11T03:08:57;15.02;;;8.18;;
20381;SDS011;10350;51.280;12.400;2022-12-11T03:11:23;15.50;;;8.45;;
20381;SDS011;10350;51.280;12.400;2022-12-11T03:13:49;17.80;;;8.68;;
20381;SDS011;10350;51.280;12.400;2022-12-11T03:18:51;17.23;;;9.55;;
20381;SDS011;10350;51.280;12.400;2022-12-11T03:23:55;18.95;;;9.50;;
20381;SDS011;10350;51.280;12.400;2022-12-11T03:26:22;16.90;;;9.02;;
20381;SDS011;10350;51.280;12.400;2022-12-11T03:28:50;19.48;;;10.20;;
20381;SDS011;10350;51.280;12.400;2022-12-11T03:31:41;19.67;;;9.55;;
20381;SDS011;10350;51.280;12.400;2022-12-11T03:34:17;17.08;;;9.30;;
20381;SDS011;10350;51.280;12.400;2022-12-11T03:36:44;16.80;;;8.70;;
20381;SDS011;10350;51.280;12.400;2022-12-11T03:39:14;15.95;;;8.98;;
20381;SDS011;10350;51.280;12.400;2022-12-11T03:41:40;18.25;;;9.57;;
20381;SDS011;10350;51.280;12.400;2022-12-11T03:44:08;17.83;;;8.80;;
20381;SDS011;10350;51.280;12.400;2022-12-11T03:46:35;17.98;;;9.40;;
20381;SDS011;10350;51.280;12.400;2022-12-11T03:51:29;14.75;;;8.48;;
20381;SDS011;10350;51.280;12.400;2022-12-11T03:53:56;14.82;;;7.80;;
20381;SDS011;10350;51.280;12.400;2022-12-11T03:56:22;14.70;;;8.80;;
20381;SDS011;10350;51.280;12.400;2022-12-11T03:58:50;17.80;;;8.88;;
20381;SDS011;10350;51.280;12.400;2022-12-11T04:01:16;14.52;;;8.18;;
20381;SDS011;10350;51.280;12.400;2022-12-11T04:03:42;14.43;;;8.23;;
20381;SDS011;10350;51.280;12.400;2022-12-11T04:06:08;14.38;;;8.75;;
20381;SDS011;10350;51.280;12.400;2022-12-11T04:08:34;17.05;;;9.30;;
20381;SDS011;10350;51.280;12.400;2022-12-11T04:11:01;14.68;;;9.07;;
20381;SDS011;10350;51.280;12.400;2022-12-11T04:13:51;18.08;;;9.85;;
20381;SDS011;10350;51.280;12.400;2022-12-11T04:16:35;16.77;;;9.30;;
20381;SDS011;10350;51.280;12.400;2022-12-11T04:19:02;16.85;;;9.05;;
20381;SDS011;10350;51.280;12.400;2022-12-11T04:21:47;15.63;;;8.93;;
20381;SDS011;10350;51.280;12.400;2022-12-11T04:24:31;18.27;;;9.93;;
20381;SDS011;10350;51.280;12.400;2022-12-11T04:26:57;15.95;;;9.27;;
20381;SDS011;10350;51.280;12.400;2022-12-11T04:29:23;20.02;;;9.95;;
20381;SDS011;10350;51.280;12.400;2022-12-11T04:31:49;17.33;;;9.18;;
20381;SDS011;10350;51.280;12.400;2022-12-11T04:34:16;17.23;;;9.43;;
20381;SDS011;10350;51.280;12.400;2022-12-11T04:36:42;19.65;;;9.18;;
20381;SDS011;10350;51.280;12.400;2022-12-11T04:39:08;17.38;;;10.05;;
20381;SDS011;10350;51.280;12.400;2022-12-11T04:41:34;15.07;;;8.55;;
20381;SDS011;10350;51.280;12.400;2022-12-11T04:44:01;15.27;;;8.75;;
20381;SDS011;10350;51.280;12.400;2022-12-11T04:46:27;17.10;;;9.30;;
20381;SDS011;10350;51.280;12.400;2022-12-11T04:48:53;15.27;;;8.13;;
20381;SDS011;10350;51.280;12.400;2022-12-11T04:51:19;16.70;;;9.23;;
20381;SDS011;10350;51.280;12.400;2022-12-11T04:53:45;14.75;;;8.77;;
20381;SDS011;10350;51.280;12.400;2022-12-11T04:56:13;17.95;;;9.32;;
20381;SDS011;10350;51.280;12.400;2022-12-11T04:58:39;18.83;;;9.60;;
20381;SDS011;10350;51.280;12.400;2022-12-11T05:01:16;14.65;;;8.07;;
20381;SDS011;10350;51.280;12.400;2022-12-11T05:03:43;14.50;;;8.63;;
20381;SDS011;10350;51.280;12.400;2022-12-11T05:06:09;15.95;;;9.07;;
20381;SDS011;10350;51.280;12.400;2022-12-11T05:08:36;17.35;;;10.57;;
20381;SDS011;10350;51.280;12.400;2022-12-11T05:11:03;16.83;;;9.07;;
20381;SDS011;10350;51.280;12.400;2022-12-11T05:13:30;10.23;;;5.82;;
20381;SDS011;10350;51.280;12.400;2022-12-11T05:15:56;13.88;;;8.50;;
20381;SDS011;10350;51.280;12.400;2022-12-11T05:18:22;15.60;;;8.27;;
20381;SDS011;10350;51.280;12.400;2022-12-11T05:20:55;15.07;;;8.45;;
20381;SDS011;10350;51.280;12.400;2022-12-11T05:23:22;14.90;;;8.63;;
20381;SDS011;10350;51.280;12.400;2022-12-11T05:25:52;13.20;;;8.02;;
20381;SDS011;10350;51.280;12.400;2022-12-11T05:28:18;15.02;;;8.50;;
20381;SDS011;10350;51.280;12.400;2022-12-11T05:30:44;18.25;;;8.02;;
20381;SDS011;10350;51.280;12.400;2022-12-11T05:33:10;14.00;;;7.63;;
20381;SDS011;10350;51.280;12.400;2022-12-11T05:35:37;13.02;;;7.28;;
20381;SDS011;10350;51.280;12.400;2022-12-11T05:38:03;12.93;;;8.02;;
20381;SDS011;10350;51.280;12.400;2022-12-11T05:40:29;13.07;;;7.90;;
20381;SDS011;10350;51.280;12.400;2022-12-11T05:42:55;12.63;;;7.38;;
20381;SDS011;10350;51.280;12.400;2022-12-11T05:45:21;13.38;;;7.72;;
20381;SDS011;10350;51.280;12.400;2022-12-11T05:47:47;17.08;;;7.88;;
20381;SDS011;10350;51.280;12.400;2022-12-11T05:50:13;18.42;;;8.02;;
20381;SDS011;10350;51.280;12.400;2022-12-11T05:52:39;14.85;;;8.70;;
20381;SDS011;10350;51.280;12.400;2022-12-11T05:55:05;13.68;;;7.18;;
20381;SDS011;10350;51.280;12.400;2022-12-11T05:57:31;15.88;;;8.15;;
20381;SDS011;10350;51.280;12.400;2022-12-11T05:59:57;13.77;;;8.45;;
20381;SDS011;10350;51.280;12.400;2022-12-11T06:02:23;12.05;;;7.68;;
20381;SDS011;10350;51.280;12.400;2022-12-11T06:04:49;14.30;;;8.50;;
20381;SDS011;10350;51.280;12.400;2022-12-11T06:07:15;15.20;;;7.82;;
20381;SDS011;10350;51.280;12.400;2022-12-11T06:09:41;12.73;;;7.40;;
20381;SDS011;10350;51.280;12.400;2022-12-11T06:12:07;13.30;;;8.10;;
20381;SDS011;10350;51.280;12.400;2022-12-11T06:14:33;14.88;;;8.27;;
20381;SDS011;10350;51.280;12.400;2022-12-11T06:16:59;12.20;;;7.63;;
20381;SDS011;10350;51.280;12.400;2022-12-11T06:19:25;12.98;;;7.47;;
20381;SDS011;10350;51.280;12.400;2022-12-11T06:21:51;14.27;;;7.88;;
20381;SDS011;10350;51.280;12.400;2022-12-11T06:24:17;12.60;;;7.63;;
20381;SDS011;10350;51.280;12.400;2022-12-11T06:26:43;14.07;;;7.63;;
20381;SDS011;10350;51.280;12.400;2022-12-11T06:29:09;13.27;;;7.90;;
20381;SDS011;10350;51.280;12.400;2022-12-11T06:31:35;15.30;;;8.07;;
20381;SDS011;10350;51.280;12.400;2022-12-11T06:34:01;12.45;;;7.30;;
20381;SDS011;10350;51.280;12.400;2022-12-11T06:36:27;13.23;;;7.68;;
20381;SDS011;10350;51.280;12.400;2022-12-11T06:38:53;12.23;;;7.53;;
20381;SDS011;10350;51.280;12.400;2022-12-11T06:41:19;12.10;;;7.57;;
20381;SDS011;10350;51.280;12.400;2022-12-11T06:43:45;13.13;;;7.38;;
20381;SDS011;10350;51.280;12.400;2022-12-11T06:46:15;10.82;;;6.78;;
20381;SDS011;10350;51.280;12.400;2022-12-11T06:48:42;12.35;;;6.75;;
20381;SDS011;10350;51.280;12.400;2022-12-11T06:51:09;11.40;;;6.40;;
20381;SDS011;10350;51.280;12.400;2022-12-11T06:53:35;12.35;;;7.00;;
20381;SDS011;10350;51.280;12.400;2022-12-11T06:56:05;14.45;;;6.70;;
20381;SDS011;10350;51.280;12.400;2022-12-11T06:58:35;11.82;;;6.50;;
20381;SDS011;10350;51.280;12.400;2022-12-11T07:01:02;11.82;;;6.43;;
20381;SDS011;10350;51.280;12.400;2022-12-11T07:03:28;13.13;;;6.90;;
20381;SDS011;10350;51.280;12.400;2022-12-11T07:05:58;12.80;;;6.65;;
20381;SDS011;10350;51.280;12.400;2022-12-11T07:08:26;13.13;;;7.28;;
20381;SDS011;10350;51.280;12.400;2022-12-11T07:10:52;11.77;;;6.80;;
20381;SDS011;10350;51.280;12.400;2022-12-11T07:13:18;10.98;;;6.75;;
20381;SDS011;10350;51.280;12.400;2022-12-11T07:15:44;12.48;;;6.97;;
20381;SDS011;10350;51.280;12.400;2022-12-11T07:18:10;10.68;;;6.20;;
20381;SDS011;10350;51.280;12.400;2022-12-11T07:20:36;12.43;;;6.82;;
20381;SDS011;10350;51.280;12.400;2022-12-11T07:23:02;13.15;;;6.85;;
20381;SDS011;10350;51.280;12.400;2022-12-11T07:25:28;13.40;;;7.10;;
20381;SDS011;10350;51.280;12.400;2022-12-11T07:27:54;13.27;;;7.25;;
20381;SDS011;10350;51.280;12.400;2022-12-11T07:30:20;16.88;;;6.95;;
20381;SDS011;10350;51.280;12.400;2022-12-11T07:32:46;14.80;;;7.10;;
20381;SDS011;10350;51.280;12.400;2022-12-11T07:35:12;17.55;;;7.75;;
20381;SDS011;10350;51.280;12.400;2022-12-11T07:37:39;16.92;;;7.13;;
20381;SDS011;10350;51.280;12.400;2022-12-11T07:40:05;15.40;;;7.10;;
20381;SDS011;10350;51.280;12.400;2022-12-11T07:42:31;11.63;;;6.47;;
20381;SDS011;10350;51.280;12.400;2022-12-11T07:44:57;14.55;;;6.35;;
20381;SDS011;10350;51.280;12.400;2022-12-11T07:47:23;13.80;;;6.65;;
20381;SDS011;10350;51.280;12.400;2022-12-11T07:49:50;10.65;;;6.30;;
20381;SDS011;10350;51.280;12.400;2022-12-11T07:52:16;14.38;;;7.50;;
20381;SDS011;10350;51.280;12.400;2022-12-11T07:54:42;13.45;;;6.55;;
20381;SDS011;10350;51.280;12.400;2022-12-11T07:57:08;14.52;;;6.97;;
20381;SDS011;10350;51.280;12.400;2022-12-11T07:59:34;11.77;;;6.38;;
20381;SDS011;10350;51.280;12.400;2022-12-11T08:02:00;11.63;;;5.75;;
20381;SDS011;10350;51.280;12.400;2022-12-11T08:04:26;14.95;;;7.05;;
20381;SDS011;10350;51.280;12.400;2022-12-11T08:06:52;13.88;;;7.13;;
20381;SDS011;10350;51.280;12.400;2022-12-11T08:09:18;14.63;;;7.35;;
20381;SDS011;10350;51.280;12.400;2022-12-11T08:14:12;14.50;;;7.38;;
20381;SDS011;10350;51.280;12.400;2022-12-11T08:16:38;15.90;;;7.80;;
20381;SDS011;10350;51.280;12.400;2022-12-11T08:19:06;15.63;;;8.02;;
20381;SDS011;10350;51.280;12.400;2022-12-11T08:21:32;18.52;;;7.85;;
20381;SDS011;10350;51.280;12.400;2022-12-11T08:23:58;19.52;;;8.85;;
20381;SDS011;10350;51.280;12.400;2022-12-11T08:26:26;18.33;;;8.85;;
20381;SDS011;10350;51.280;12.400;2022-12-11T08:28:53;12.35;;;7.13;;
20381;SDS011;10350;51.280;12.400;2022-12-11T08:31:19;14.05;;;8.02;;
20381;SDS011;10350;51.280;12.400;2022-12-11T08:33:45;15.13;;;8.70;;
20381;SDS011;10350;51.280;12.400;2022-12-11T08:36:12;13.98;;;7.53;;
20381;SDS011;10350;51.280;12.400;2022-12-11T08:38:38;15.75;;;7.60;;
20381;SDS011;10350;51.280;12.400;2022-12-11T08:43:33;16.27;;;8.07;;
20381;SDS011;10350;51.280;12.400;2022-12-11T08:45:59;15.80;;;8.60;;
20381;SDS011;10350;51.280;12.400;2022-12-11T08:48:25;13.35;;;8.45;;
20381;SDS011;10350;51.280;12.400;2022-12-11T08:50:51;14.43;;;7.60;;
20381;SDS011;10350;51.280;12.400;2022-12-11T08:53:17;15.35;;;7.90;;
20381;SDS011;10350;51.280;12.400;2022-12-11T08:55:43;16.50;;;8.02;;
20381;SDS011;10350;51.280;12.400;2022-12-11T08:58:09;15.63;;;7.93;;
20381;SDS011;10350;51.280;12.400;2022-12-11T09:00:35;14.45;;;7.68;;
20381;SDS011;10350;51.280;12.400;2022-12-11T09:03:01;13.13;;;7.85;;
20381;SDS011;10350;51.280;12.400;2022-12-11T09:05:27;18.08;;;9.23;;
20381;SDS011;10350;51.280;12.400;2022-12-11T09:07:53;15.20;;;8.07;;
20381;SDS011;10350;51.280;12.400;2022-12-11T09:10:19;14.35;;;8.20;;
20381;SDS011;10350;51.280;12.400;2022-12-11T09:12:45;13.30;;;7.93;;
20381;SDS011;10350;51.280;12.400;2022-12-11T09:15:11;14.63;;;8.07;;
20381;SDS011;10350;51.280;12.400;2022-12-11T09:17:37;14.32;;;7.70;;
20381;SDS011;10350;51.280;12.400;2022-12-11T09:20:03;15.43;;;8.32;;
20381;SDS011;10350;51.280;12.400;2022-12-11T09:22:30;16.02;;;8.75;;
20381;SDS011;10350;51.280;12.400;2022-12-11T09:24:57;16.73;;;7.50;;
20381;SDS011;10350;51.280;12.400;2022-12-11T09:27:23;14.65;;;7.57;;
20381;SDS011;10350;51.280;12.400;2022-12-11T09:29:49;14.02;;;7.57;;
20381;SDS011;10350;51.280;12.400;2022-12-11T09:32:15;13.57;;;7.65;;
20381;SDS011;10350;51.280;12.400;2022-12-11T09:34:42;11.85;;;7.25;;
20381;SDS011;10350;51.280;12.400;2022-12-11T09:37:08;14.05;;;7.60;;
20381;SDS011;10350;51.280;12.400;2022-12-11T09:39:34;14.60;;;7.75;;
20381;SDS011;10350;51.280;12.400;2022-12-11T09:44:45;12.88;;;6.95;;
20381;SDS011;10350;51.280;12.400;2022-12-11T09:49:44;14.40;;;7.85;;
20381;SDS011;10350;51.280;12.400;2022-12-11T09:54:39;12.35;;;6.88;;
20381;SDS011;10350;51.280;12.400;2022-12-11T10:02:24;13.15;;;6.82;;
20381;SDS011;10350;51.280;12.400;2022-12-11T10:05:05;14.40;;;7.53;;
20381;SDS011;10350;51.280;12.400;2022-12-11T10:10:06;12.80;;;6.70;;
20381;SDS011;10350;51.280;12.400;2022-12-11T10:12:44;14.90;;;7.97;;
20381;SDS011;10350;51.280;12.400;2022-12-11T10:15:24;13.65;;;7.93;;
20381;SDS011;10350;51.280;12.400;2022-12-11T10:17:52;14.55;;;7.90;;
20381;SDS011;10350;51.280;12.400;2022-12-11T10:20:24;15.75;;;7.88;;
20381;SDS011;10350;51.280;12.400;2022-12-11T10:22:55;14.23;;;7.90;;
20381;SDS011;10350;51.280;12.400;2022-12-11T10:25:24;15.27;;;8.05;;
20381;SDS011;10350;51.280;12.400;2022-12-11T10:27:52;14.00;;;7.65;;
20381;SDS011;10350;51.280;12.400;2022-12-11T10:32:49;13.13;;;7.18;;
20381;SDS011;10350;51.280;12.400;2022-12-11T10:38:09;13.32;;;7.50;;
20381;SDS011;10350;51.280;12.400;2022-12-11T10:40:37;13.18;;;6.63;;
20381;SDS011;10350;51.280;12.400;2022-12-11T10:45:30;14.05;;;6.78;;
20381;SDS011;10350;51.280;12.400;2022-12-11T10:48:08;14.55;;;7.53;;
20381;SDS011;10350;51.280;12.400;2022-12-11T10:50:35;13.48;;;7.15;;
20381;SDS011;10350;51.280;12.400;2022-12-11T10:53:02;14.68;;;7.13;;
20381;SDS011;10350;51.280;12.400;2022-12-11T10:55:42;14.30;;;7.40;;
20381;SDS011;10350;51.280;12.400;2022-12-11T10:58:15;13.75;;;7.15;;
20381;SDS011;10350;51.280;12.400;2022-12-11T11:00:43;16.23;;;8.55;;
20381;SDS011;10350;51.280;12.400;2022-12-11T11:03:23;14.02;;;7.50;;
20381;SDS011;10350;51.280;12.400;2022-12-11T11:06:00;14.82;;;7.72;;
20381;SDS011;10350;51.280;12.400;2022-12-11T11:08:26;17.00;;;7.05;;
20381;SDS011;10350;51.280;12.400;2022-12-11T11:13:22;15.57;;;8.50;;
20381;SDS011;10350;51.280;12.400;2022-12-11T11:15:49;16.35;;;8.93;;
20381;SDS011;10350;51.280;12.400;2022-12-11T11:18:24;17.25;;;8.82;;
20381;SDS011;10350;51.280;12.400;2022-12-11T11:20:51;16.75;;;8.40;;
20381;SDS011;10350;51.280;12.400;2022-12-11T11:23:17;15.32;;;7.20;;
20381;SDS011;10350;51.280;12.400;2022-12-11T11:25:48;16.52;;;8.05;;
20381;SDS011;10350;51.280;12.400;2022-12-11T11:28:17;13.45;;;7.20;;
20381;SDS011;10350;51.280;12.400;2022-12-11T11:30:53;17.92;;;8.52;;
20381;SDS011;10350;51.280;12.400;2022-12-11T11:33:20;15.30;;;8.50;;
20381;SDS011;10350;51.280;12.400;2022-12-11T11:35:50;17.40;;;8.38;;
20381;SDS011;10350;51.280;12.400;2022-12-11T11:38:17;14.25;;;8.20;;
20381;SDS011;10350;51.280;12.400;2022-12-11T11:41:03;9.83;;;5.53;;
20381;SDS011;10350;51.280;12.400;2022-12-11T11:43:42;11.98;;;6.13;;
20381;SDS011;10350;51.280;12.400;2022-12-11T11:46:21;17.58;;;8.50;;
20381;SDS011;10350;51.280;12.400;2022-12-11T11:49:12;12.88;;;6.78;;
20381;SDS011;10350;51.280;12.400;2022-12-11T11:51:42;12.90;;;6.82;;
20381;SDS011;10350;51.280;12.400;2022-12-11T11:56:51;14.18;;;7.80;;
20381;SDS011;10350;51.280;12.400;2022-12-11T11:59:32;14.75;;;7.72;;
20381;SDS011;10350;51.280;12.400;2022-12-11T12:02:00;14.82;;;7.63;;
20381;SDS011;10350;51.280;12.400;2022-12-11T12:04:28;10.13;;;6.32;;
20381;SDS011;10350;51.280;12.400;2022-12-11T12:09:33;14.10;;;7.13;;
20381;SDS011;10350;51.280;12.400;2022-12-11T12:12:21;14.95;;;7.40;;
20381;SDS011;10350;51.280;12.400;2022-12-11T12:20:18;16.50;;;7.63;;
20381;SDS011;10350;51.280;12.400;2022-12-11T12:22:56;16.63;;;7.68;;
20381;SDS011;10350;51.280;12.400;2022-12-11T12:28:13;11.23;;;6.88;;
20381;SDS011;10350;51.280;12.400;2022-12-11T12:38:20;12.88;;;7.15;;
20381;SDS011;10350;51.280;12.400;2022-12-11T12:41:07;11.50;;;6.85;;
20381;SDS011;10350;51.280;12.400;2022-12-11T12:48:42;13.20;;;6.72;;
20381;SDS011;10350;51.280;12.400;2022-12-11T12:51:12;15.80;;;7.93;;
20381;SDS011;10350;51.280;12.400;2022-12-11T12:53:44;13.95;;;7.75;;
20381;SDS011;10350;51.280;12.400;2022-12-11T12:56:14;13.77;;;6.97;;
20381;SDS011;10350;51.280;12.400;2022-12-11T12:58:42;15.40;;;7.22;;
20381;SDS011;10350;51.280;12.400;2022-12-11T13:01:13;16.05;;;8.02;;
20381;SDS011;10350;51.280;12.400;2022-12-11T13:04:01;14.32;;;7.75;;
20381;SDS011;10350;51.280;12.400;2022-12-11T13:08:55;15.40;;;8.18;;
20381;SDS011;10350;51.280;12.400;2022-12-11T13:11:29;12.20;;;7.05;;
20381;SDS011;10350;51.280;12.400;2022-12-11T13:14:02;14.63;;;7.28;;
20381;SDS011;10350;51.280;12.400;2022-12-11T13:16:35;16.00;;;8.32;;
20381;SDS011;10350;51.280;12.400;2022-12-11T13:19:01;14.55;;;7.70;;
20381;SDS011;10350;51.280;12.400;2022-12-11T13:23:54;16.48;;;9.18;;
20381;SDS011;10350;51.280;12.400;2022-12-11T13:26:27;15.18;;;7.95;;
20381;SDS011;10350;51.280;12.400;2022-12-11T13:28:54;16.52;;;9.27;;
20381;SDS011;10350;51.280;12.400;2022-12-11T13:34:17;16.65;;;8.27;;
20381;SDS011;10350;51.280;12.400;2022-12-11T13:36:49;16.55;;;8.02;;
20381;SDS011;10350;51.280;12.400;2022-12-11T13:39:26;17.40;;;8.52;;
20381;SDS011;10350;51.280;12.400;2022-12-11T13:41:56;18.27;;;8.38;;
20381;SDS011;10350;51.280;12.400;2022-12-11T13:44:34;17.50;;;8.98;;
20381;SDS011;10350;51.280;12.400;2022-12-11T13:47:03;17.80;;;8.95;;
20381;SDS011;10350;51.280;12.400;2022-12-11T13:49:33;16.27;;;8.95;;
20381;SDS011;10350;51.280;12.400;2022-12-11T13:52:00;15.60;;;9.00;;
20381;SDS011;10350;51.280;12.400;2022-12-11T13:54:27;17.42;;;9.32;;
20381;SDS011;10350;51.280;12.400;2022-12-11T13:57:01;18.75;;;9.05;;
20381;SDS011;10350;51.280;12.400;2022-12-11T13:59:29;15.30;;;8.45;;
20381;SDS011;10350;51.280;12.400;2022-12-11T14:04:24;18.65;;;8.32;;
20381;SDS011;10350;51.280;12.400;2022-12-11T14:06:52;19.77;;;9.27;;
20381;SDS011;10350;51.280;12.400;2022-12-11T14:09:19;14.68;;;8.32;;
20381;SDS011;10350;51.280;12.400;2022-12-11T14:11:46;13.85;;;6.60;;
20381;SDS011;10350;51.280;12.400;2022-12-11T14:14:17;17.70;;;8.70;;
20381;SDS011;10350;51.280;12.400;2022-12-11T14:16:45;16.92;;;9.20;;
20381;SDS011;10350;51.280;12.400;2022-12-11T14:21:38;21.60;;;10.07;;
20381;SDS011;10350;51.280;12.400;2022-12-11T14:24:04;20.70;;;9.32;;
20381;SDS011;10350;51.280;12.400;2022-12-11T14:26:34;19.98;;;10.45;;
20381;SDS011;10350;51.280;12.400;2022-12-11T14:29:04;19.38;;;10.40;;
20381;SDS011;10350;51.280;12.400;2022-12-11T14:31:32;19.42;;;9.70;;
20381;SDS011;10350;51.280;12.400;2022-12-11T14:34:04;20.45;;;9.55;;
20381;SDS011;10350;51.280;12.400;2022-12-11T14:36:32;16.85;;;9.25;;
20381;SDS011;10350;51.280;12.400;2022-12-11T14:39:02;19.80;;;10.25;;
20381;SDS011;10350;51.280;12.400;2022-12-11T14:41:52;15.20;;;8.43;;
20381;SDS011;10350;51.280;12.400;2022-12-11T14:44:21;16.48;;;8.82;;
20381;SDS011;10350;51.280;12.400;2022-12-11T14:46:49;18.45;;;8.70;;
20381;SDS011;10350;51.280;12.400;2022-12-11T14:51:51;18.48;;;9.25;;
20381;SDS011;10350;51.280;12.400;2022-12-11T14:56:45;15.45;;;8.88;;
20381;SDS011;10350;51.280;12.400;2022-12-11T14:59:16;18.88;;;8.63;;
20381;SDS011;10350;51.280;12.400;2022-12-11T15:01:46;18.15;;;8.80;;
20381;SDS011;10350;51.280;12.400;2022-12-11T15:04:31;20.25;;;8.90;;
20381;SDS011;10350;51.280;12.400;2022-12-11T15:06:58;17.58;;;9.27;;
20381;SDS011;10350;51.280;12.400;2022-12-11T15:11:50;16.08;;;7.97;;
20381;SDS011;10350;51.280;12.400;2022-12-11T15:14:17;22.20;;;9.15;;
20381;SDS011;10350;51.280;12.400;2022-12-11T15:16:44;14.73;;;8.32;;
20381;SDS011;10350;51.280;12.400;2022-12-11T15:19:18;19.75;;;8.90;;
20381;SDS011;10350;51.280;12.400;2022-12-11T15:21:46;16.60;;;8.82;;
20381;SDS011;10350;51.280;12.400;2022-12-11T15:27:25;16.40;;;8.75;;
20381;SDS011;10350;51.280;12.400;2022-12-11T15:29:53;23.08;;;9.18;;
20381;SDS011;10350;51.280;12.400;2022-12-11T15:32:21;21.35;;;8.70;;
20381;SDS011;10350;51.280;12.400;2022-12-11T15:39:48;20.98;;;9.45;;
20381;SDS011;10350;51.280;12.400;2022-12-11T15:42:15;21.30;;;9.23;;
20381;SDS011;10350;51.280;12.400;2022-12-11T15:44:42;21.23;;;9.82;;
20381;SDS011;10350;51.280;12.400;2022-12-11T15:47:17;19.25;;;9.68;;
20381;SDS011;10350;51.280;12.400;2022-12-11T15:49:45;18.48;;;9.90;;
20381;SDS011;10350;51.280;12.400;2022-12-11T15:52:11;20.80;;;9.90;;
20381;SDS011;10350;51.280;12.400;2022-12-11T15:54:37;20.23;;;9.63;;
20381;SDS011;10350;51.280;12.400;2022-12-11T15:57:03;22.35;;;9.73;;
20381;SDS011;10350;51.280;12.400;2022-12-11T15:59:31;19.50;;;10.10;;
20381;SDS011;10350;51.280;12.400;2022-12-11T16:01:57;19.45;;;10.05;;
20381;SDS011;10350;51.280;12.400;2022-12-11T16:04:23;23.23;;;10.30;;
20381;SDS011;10350;51.280;12.400;2022-12-11T16:06:49;22.95;;;10.73;;
20381;SDS011;10350;51.280;12.400;2022-12-11T16:09:16;21.33;;;10.23;;